EDT,Max TemperatureF,Mean TemperatureF,Min TemperatureF,Max Dew PointF,MeanDew PointF,Min DewpointF,Max Humidity, Mean Humidity, Min Humidity, Max Sea Level PressureIn, Mean Sea Level PressureIn, Min Sea Level PressureIn, Max VisibilityMiles, Mean VisibilityMiles, Min VisibilityMiles, Max Wind SpeedMPH, Mean Wind SpeedMPH, Max Gust SpeedMPH,PrecipitationIn, CloudCover, Events, WindDirDegrees
2012-8-1,92,85,77,77,73,68,91,74,56,30.03,29.99,29.95,10,10,10,22,7,30,T,4,Rain-Thunderstorm,190
2012-8-2,92,86,79,78,75,71,91,72,52,30.01,29.97,29.93,10,10,10,18,6,24,0.02,4,,147
2012-8-3,86,81,75,79,76,72,97,86,74,30.02,29.99,29.93,10,8,1,31,6,36,1.33,6,Rain-Thunderstorm,88
2012-8-4,90,83,75,77,75,73,100,82,63,30.06,30.00,29.94,10,10,10,18,8,23,0.02,6,,126
2012-8-5,91,84,76,77,75,74,94,75,56,30.09,30.06,30.02,10,10,3,16,6,20,0.29,5,Rain,115
2012-8-6,87,80,73,79,75,72,94,81,68,30.08,30.05,30.00,10,8,0,25,9,36,1.93,7,Fog-Rain-Thunderstorm,133
2012-8-7,90,83,75,79,76,73,94,79,63,30.04,30.01,29.97,10,10,10,18,8,23,0.01,5,Rain-Thunderstorm,138
2012-8-8,91,86,80,78,75,73,85,75,64,30.06,30.02,29.98,10,10,10,14,7,20,0.00,4,,118
2012-8-9,91,86,81,77,75,74,85,72,59,30.03,29.99,29.94,10,10,10,16,8,21,0.00,3,,124
2012-8-10,89,83,77,75,74,72,91,75,59,30.01,29.98,29.94,10,10,10,20,8,24,0.08,5,Rain-Thunderstorm,144
2012-8-11,89,82,74,77,74,71,94,78,61,30.04,29.98,29.94,10,8,0,21,7,25,4.63,7,Fog-Rain-Thunderstorm,172
2012-8-12,90,83,75,77,75,73,94,77,59,30.06,30.03,29.99,10,10,2,17,3,23,0.40,6,Rain-Thunderstorm,184
2012-8-13,89,82,75,78,76,74,100,80,59,30.08,30.05,30.00,10,10,10,13,4,18,0.00,5,Thunderstorm,113
2012-8-14,87,83,78,78,76,73,97,80,63,30.05,30.02,29.97,10,10,3,21,5,29,0.46,5,Rain-Thunderstorm,190
2012-8-15,89,84,78,77,76,74,97,80,63,30.05,30.02,29.98,10,10,9,15,5,18,0.12,6,Rain-Thunderstorm,144
2012-8-16,91,85,78,77,76,72,91,74,56,30.08,30.04,30.00,10,10,10,14,5,16,T,5,Thunderstorm,184
2012-8-17,93,83,73,76,73,65,94,75,56,30.06,30.01,29.94,10,9,1,35,5,45,0.84,5,Rain-Thunderstorm,219
2012-8-18,93,85,76,76,73,70,94,70,46,30.01,29.96,29.93,10,10,10,24,5,30,0.00,6,Thunderstorm,207
2012-8-19,92,86,79,76,75,71,91,74,56,30.01,29.97,29.92,10,10,10,18,8,22,0.00,5,Rain-Thunderstorm,185
2012-8-20,91,85,79,77,74,70,91,72,52,30.02,29.98,29.92,10,10,10,22,7,26,T,4,Rain,197
2012-8-21,92,83,74,77,73,69,94,73,52,30.10,30.04,29.98,10,9,2,29,7,33,0.46,5,Rain-Thunderstorm,190
2012-8-22,91,83,74,77,73,71,94,79,64,30.10,30.07,30.02,10,10,2,23,5,28,0.32,6,Rain-Thunderstorm,238
2012-8-23,90,83,75,77,73,69,94,73,52,30.08,30.05,30.02,10,10,10,14,6,20,0.00,4,,86
2012-8-24,91,82,73,75,72,68,94,77,59,30.06,29.99,29.94,10,7,0,32,9,37,1.49,6,Fog-Rain-Thunderstorm,46
2012-8-25,85,80,74,77,72,66,87,76,65,30.00,29.95,29.90,10,8,1,17,13,20,0.61,8,Rain-Thunderstorm,29
2012-8-26,84,80,75,79,76,72,97,88,79,29.89,29.80,29.74,10,3,0,41,23,52,5.52,7,Fog-Rain-Thunderstorm,86
2012-8-27,85,80,75,79,76,73,100,87,74,29.96,29.84,29.75,10,6,0,43,22,61,3.51,8,Fog-Rain-Thunderstorm,151
2012-8-28,89,84,78,79,76,71,94,82,70,30.01,29.96,29.92,10,9,1,23,10,29,0.38,6,Rain-Thunderstorm,165
2012-8-29,89,84,78,77,76,72,91,75,59,30.01,29.97,29.93,10,10,10,17,9,23,0.00,5,,149
2012-8-30,90,84,78,76,75,73,91,77,63,30.11,30.03,29.97,10,10,10,14,6,17,0.00,4,,123
2012-8-31,89,84,79,77,75,72,85,71,56,30.16,30.11,30.07,10,10,10,13,6,17,0.00,5,,91